Cap Theodora — SVAM5 — position and weather

sailwx.info

Track history (hours):
 
Tides and Currents Weather Stations Pressure Air Temp Water Temp Dewpoint Dewpoint Depression Visibility Wind Speed Wind Dir Waves Ship Positions

Cap Theodora

Last reported at 2017-Feb-15 19:15 UTC. Time now 2017-Feb-19 16:45 UTC.
Position N 36°01' W 005°04'.

Length 274 m; draft 9.2 m.

Type: Ship. MMSI: 240840000.

Date/timePositionNaut miles runAvg speedWind from/ knotsBaromVisibWave heightAir tempDewpointWater temp
2017-Feb-15 19:15N 36°01' W 005°04'4 6.2
2017-Feb-15 18:33N 36°00' W 005°10'6 6.1
2017-Feb-15 17:33N 36°02' W 005°17'7 6.5
2017-Feb-15 16:33N 36°07' W 005°23'1 1.4
2017-Feb-15 15:33N 36°08' W 005°23'0 0.1
2017-Feb-15 14:33N 36°08' W 005°23'0 0.1
2017-Feb-15 13:33N 36°08' W 005°23'0 0.0
2017-Feb-15 12:33N 36°08' W 005°23'0 0.0
2017-Feb-15 11:33N 36°08' W 005°23'0 0.1
2017-Feb-15 10:33N 36°08' W 005°23'0 0.1
2017-Feb-15 09:33N 36°08' W 005°23'0 0.3
2017-Feb-15 08:33N 36°08' W 005°23'5 4.8
2017-Feb-15 07:33N 36°03' W 005°21'10 9.5
2017-Feb-15 06:33N 35°57' W 005°31'1010.1
2017-Feb-15 05:33N 35°55' W 005°43'1110.6
2017-Feb-15 04:33N 35°54' W 005°56'  
2017-Feb-12 17:07N 38°08' W 010°02'4 7.8
2017-Feb-12 16:33N 38°13' W 010°04'8 7.6
2017-Feb-12 15:33N 38°20' W 010°06'8 7.7
2017-Feb-12 14:32N 38°28' W 010°08'8 7.8
2017-Feb-12 13:33N 38°35' W 010°10'8 7.9
2017-Feb-12 12:33N 38°43' W 010°12'8 8.0
2017-Feb-12 11:32N 38°51' W 010°13'8 8.0
2017-Feb-12 10:33N 38°59' W 010°12'8 8.2
2017-Feb-12 09:33N 39°07' W 010°12'9 8.6
2017-Feb-12 08:33N 39°16' W 010°12'  
2017-Feb-07 16:03N 49°40' W 003°48'2 3.8
2017-Feb-07 15:33N 49°41' W 003°45'4 3.7
2017-Feb-07 14:33N 49°43' W 003°40'4 3.8
2017-Feb-07 13:33N 49°45' W 003°35'4 4.5
2017-Feb-07 12:33N 49°47' W 003°29'5 5.0
2017-Feb-07 11:33N 49°49' W 003°22'6 6.3
2017-Feb-07 10:33N 49°53' W 003°14'7 6.8
2017-Feb-07 09:33N 49°56' W 003°05'7 7.0
2017-Feb-07 08:33N 49°60' W 002°55'7 6.6
2017-Feb-07 07:33N 50°01' W 002°45'6 5.8
2017-Feb-07 06:33N 50°03' W 002°37'13 4.4
2017-Feb-07 03:33N 50°06' W 002°17'63 6.8
2017-Feb-06 18:13N 50°24' W 000°41'10 5.8
2017-Feb-06 16:31N 50°26' W 000°26'5 5.6
2017-Feb-06 15:34N 50°28' W 000°18'6 6.1
2017-Feb-06 14:33N 50°29' W 000°09'8 7.1
2017-Feb-06 13:30N 50°31' E 000°03'8 8.2
2017-Feb-06 12:32N 50°33' E 000°14'9 8.9
2017-Feb-06 11:33N 50°35' E 000°28'9 8.9
2017-Feb-06 10:33N 50°40' E 000°40'9 8.8
2017-Feb-06 09:33N 50°45' E 000°51'8 8.4
2017-Feb-06 08:33N 50°50' E 001°02'8 7.8
2017-Feb-06 07:33N 50°55' E 001°12'7 7.1
2017-Feb-06 06:33N 50°60' E 001°20'8 7.7
2017-Feb-06 05:33N 51°05' E 001°29'9 8.7
2017-Feb-06 04:33N 51°10' E 001°40'10 9.5
2017-Feb-06 03:33N 51°18' E 001°49'1010.2
2017-Feb-06 02:33N 51°27' E 001°57'10 9.7
2017-Feb-06 01:33N 51°34' E 002°08'9 9.1
2017-Feb-06 00:33N 51°40' E 002°18'  
Track history (hours):
 
Tides and Currents Weather Stations Pressure Air Temp Water Temp Dewpoint Dewpoint Depression Visibility Wind Speed Wind Dir Waves Ship Positions

Cap Theodora

Last reported at 2017-Feb-15 19:15 UTC. Time now 2017-Feb-19 16:45 UTC.
Position N 36°01' W 005°04'.

Length 274 m; draft 9.2 m.

Type: Ship. MMSI: 240840000.

Date/timePositionNaut miles runAvg speedWind from/ knotsBaromVisibWave heightAir tempDewpointWater temp
2017-Feb-15 19:15N 36°01' W 005°04'4 6.2
2017-Feb-15 18:33N 36°00' W 005°10'6 6.1
2017-Feb-15 17:33N 36°02' W 005°17'7 6.5
2017-Feb-15 16:33N 36°07' W 005°23'1 1.4
2017-Feb-15 15:33N 36°08' W 005°23'0 0.1
2017-Feb-15 14:33N 36°08' W 005°23'0 0.1
2017-Feb-15 13:33N 36°08' W 005°23'0 0.0
2017-Feb-15 12:33N 36°08' W 005°23'0 0.0
2017-Feb-15 11:33N 36°08' W 005°23'0 0.1
2017-Feb-15 10:33N 36°08' W 005°23'0 0.1
2017-Feb-15 09:33N 36°08' W 005°23'0 0.3
2017-Feb-15 08:33N 36°08' W 005°23'5 4.8
2017-Feb-15 07:33N 36°03' W 005°21'10 9.5
2017-Feb-15 06:33N 35°57' W 005°31'1010.1
2017-Feb-15 05:33N 35°55' W 005°43'1110.6
2017-Feb-15 04:33N 35°54' W 005°56'  
2017-Feb-12 17:07N 38°08' W 010°02'4 7.8
2017-Feb-12 16:33N 38°13' W 010°04'8 7.6
2017-Feb-12 15:33N 38°20' W 010°06'8 7.7
2017-Feb-12 14:32N 38°28' W 010°08'8 7.8
2017-Feb-12 13:33N 38°35' W 010°10'8 7.9
2017-Feb-12 12:33N 38°43' W 010°12'8 8.0
2017-Feb-12 11:32N 38°51' W 010°13'8 8.0
2017-Feb-12 10:33N 38°59' W 010°12'8 8.2
2017-Feb-12 09:33N 39°07' W 010°12'9 8.6
2017-Feb-12 08:33N 39°16' W 010°12'  
2017-Feb-07 16:03N 49°40' W 003°48'2 3.8
2017-Feb-07 15:33N 49°41' W 003°45'4 3.7
2017-Feb-07 14:33N 49°43' W 003°40'4 3.8
2017-Feb-07 13:33N 49°45' W 003°35'4 4.5
2017-Feb-07 12:33N 49°47' W 003°29'5 5.0
2017-Feb-07 11:33N 49°49' W 003°22'6 6.3
2017-Feb-07 10:33N 49°53' W 003°14'7 6.8
2017-Feb-07 09:33N 49°56' W 003°05'7 7.0
2017-Feb-07 08:33N 49°60' W 002°55'7 6.6
2017-Feb-07 07:33N 50°01' W 002°45'6 5.8
2017-Feb-07 06:33N 50°03' W 002°37'13 4.4
2017-Feb-07 03:33N 50°06' W 002°17'63 6.8
2017-Feb-06 18:13N 50°24' W 000°41'10 5.8
2017-Feb-06 16:31N 50°26' W 000°26'5 5.6
2017-Feb-06 15:34N 50°28' W 000°18'6 6.1
2017-Feb-06 14:33N 50°29' W 000°09'8 7.1
2017-Feb-06 13:30N 50°31' E 000°03'8 8.2
2017-Feb-06 12:32N 50°33' E 000°14'9 8.9
2017-Feb-06 11:33N 50°35' E 000°28'9 8.9
2017-Feb-06 10:33N 50°40' E 000°40'9 8.8
2017-Feb-06 09:33N 50°45' E 000°51'8 8.4
2017-Feb-06 08:33N 50°50' E 001°02'8 7.8
2017-Feb-06 07:33N 50°55' E 001°12'7 7.1
2017-Feb-06 06:33N 50°60' E 001°20'8 7.7
2017-Feb-06 05:33N 51°05' E 001°29'9 8.7
2017-Feb-06 04:33N 51°10' E 001°40'10 9.5
2017-Feb-06 03:33N 51°18' E 001°49'1010.2
2017-Feb-06 02:33N 51°27' E 001°57'10 9.7
2017-Feb-06 01:33N 51°34' E 002°08'9 9.1
2017-Feb-06 00:33N 51°40' E 002°18'  

Dump ship's entire track history